Valley City, Illinois
Current Conditions -  °F | °C
As of 4:15 AM on Thursday 23 Oct 2014 (Local Time) from KPPQ Reporting Station
Clear Clear  
Wind Chill: 45°   Ceiling: Unl
Heat Index: 45°   Visibility: 10mi
Dew Point: 39°   Wind: 3mph
Humidity: 80%   Direction: 150°SSE
Pressure: 30.18"   Gusts: NA
Location:  39.7046°N, 90.7176°W
Report Text: KPPQ 230915Z AUTO 15003KT 10SM CLR 07/04 A3018 RMK AO2 T00740041
Loading
Personal Weather Stations






























Interactive Weather Map New forecast layout! Learn more

10-Day Weather Forecast

Advertisements
Track Severe Weather on mobile